createdAt,value
2023-06-19T00:02:02.590Z,15.67
2023-06-19T00:04:48.148Z,15.64
2023-06-19T00:07:33.555Z,15.61
2023-06-19T00:10:19.001Z,15.57
2023-06-19T00:13:04.655Z,15.58
2023-06-19T00:15:50.268Z,15.57
2023-06-19T00:18:41.105Z,15.56
2023-06-19T00:21:27.135Z,15.55
2023-06-19T00:24:12.902Z,15.56
2023-06-19T00:27:03.536Z,15.54
2023-06-19T00:29:49.440Z,15.54
2023-06-19T00:32:47.370Z,15.53
2023-06-19T00:35:33.317Z,15.54
2023-06-19T00:38:18.762Z,15.54
2023-06-19T00:41:06.163Z,15.53
2023-06-19T00:43:53.397Z,15.52
2023-06-19T00:46:41.033Z,15.54
2023-06-19T00:49:27.411Z,15.55
2023-06-19T00:52:12.829Z,15.55
2023-06-19T00:54:58.137Z,15.55
2023-06-19T00:57:46.678Z,15.54
2023-06-19T01:00:32.340Z,15.55
2023-06-19T01:03:19.076Z,15.55
2023-06-19T01:06:10.090Z,15.57
2023-06-19T01:09:08.591Z,15.51
2023-06-19T01:11:58.657Z,15.46
2023-06-19T01:14:55.163Z,15.38
2023-06-19T01:17:42.598Z,15.32
2023-06-19T01:20:29.933Z,15.22
2023-06-19T01:23:15.646Z,15.14
2023-06-19T01:26:00.999Z,15.05
2023-06-19T01:28:47.455Z,14.99
2023-06-19T01:31:44.031Z,14.96
2023-06-19T01:34:31.789Z,14.90
2023-06-19T01:37:17.894Z,14.85
2023-06-19T01:40:07.473Z,14.81
2023-06-19T01:42:56.609Z,14.77
2023-06-19T01:45:42.407Z,14.77
2023-06-19T01:48:28.740Z,14.78
2023-06-19T01:51:14.112Z,14.79
2023-06-19T01:53:59.504Z,14.83
2023-06-19T01:56:44.873Z,14.81
2023-06-19T01:59:30.363Z,14.80
2023-06-19T02:02:15.758Z,14.76
2023-06-19T02:05:01.099Z,14.76
2023-06-19T02:07:49.098Z,14.73
2023-06-19T02:10:35.636Z,14.70
2023-06-19T02:13:21.723Z,14.67
2023-06-19T02:16:07.266Z,14.63
2023-06-19T02:18:53.088Z,14.59
2023-06-19T02:21:39.413Z,14.55
2023-06-19T02:24:24.850Z,14.51
2023-06-19T02:27:10.103Z,14.52
2023-06-19T02:29:55.549Z,14.53
2023-06-19T02:32:41.031Z,14.53
2023-06-19T02:35:26.707Z,14.52
2023-06-19T02:38:15.962Z,14.50
2023-06-19T02:41:04.384Z,14.46
2023-06-19T02:43:51.698Z,14.44
2023-06-19T02:46:37.247Z,14.38
2023-06-19T02:49:22.777Z,14.34
2023-06-19T02:52:08.856Z,14.30
2023-06-19T02:54:55.137Z,14.28
2023-06-19T02:57:40.494Z,14.25
2023-06-19T03:00:26.374Z,14.22
2023-06-19T03:03:13.439Z,14.19
2023-06-19T03:06:02.238Z,14.12
2023-06-19T03:08:50.557Z,14.05
2023-06-19T03:11:37.429Z,13.99
2023-06-19T03:14:22.939Z,13.98
2023-06-19T03:17:08.480Z,13.95
2023-06-19T03:19:53.955Z,13.98
2023-06-19T03:22:43.321Z,13.98
2023-06-19T03:25:36.216Z,13.97
2023-06-19T03:28:22.783Z,13.96
2023-06-19T03:31:08.683Z,13.92
2023-06-19T03:33:54.551Z,13.91
2023-06-19T03:36:41.471Z,13.88
2023-06-19T03:39:29.414Z,13.88
2023-06-19T03:42:21.864Z,13.84
2023-06-19T03:45:08.295Z,13.78
2023-06-19T03:47:54.540Z,13.71
2023-06-19T03:50:40.368Z,13.71
2023-06-19T03:53:26.903Z,13.70
2023-06-19T03:56:13.310Z,13.67
2023-06-19T03:58:58.648Z,13.66
2023-06-19T04:01:44.238Z,13.61
2023-06-19T04:04:29.979Z,13.58
2023-06-19T04:07:15.381Z,13.56
2023-06-19T04:10:01.327Z,13.55
2023-06-19T04:12:47.335Z,13.51
2023-06-19T04:15:33.504Z,13.49
2023-06-19T04:18:19.268Z,13.46
2023-06-19T04:21:04.679Z,13.43
2023-06-19T04:23:51.667Z,13.41
2023-06-19T04:26:39.982Z,13.41
2023-06-19T04:29:25.693Z,13.41
2023-06-19T04:32:14.454Z,13.43
2023-06-19T04:35:00.215Z,13.44
2023-06-19T04:37:45.877Z,13.44
2023-06-19T04:40:31.190Z,13.46
2023-06-19T04:43:16.591Z,13.49
2023-06-19T04:46:01.910Z,13.53
2023-06-19T04:48:51.791Z,13.60
2023-06-19T04:51:37.416Z,13.68
2023-06-19T04:54:22.977Z,13.76
2023-06-19T04:57:08.471Z,13.83
2023-06-19T04:59:54.185Z,13.91
2023-06-19T05:02:39.799Z,13.98
2023-06-19T05:05:25.338Z,14.03
2023-06-19T05:08:10.824Z,14.10
2023-06-19T05:10:57.614Z,14.16
2023-06-19T05:13:43.030Z,14.21
2023-06-19T05:16:28.523Z,14.27
2023-06-19T05:19:14.373Z,14.33
2023-06-19T05:21:59.725Z,14.36
2023-06-19T05:24:45.221Z,14.40
2023-06-19T05:27:31.022Z,14.45
2023-06-19T05:30:16.310Z,14.48
2023-06-19T05:33:02.055Z,14.50
2023-06-19T05:35:53.724Z,14.51
2023-06-19T05:38:39.187Z,14.52
2023-06-19T05:41:24.714Z,14.54
2023-06-19T05:44:11.048Z,14.58
2023-06-19T05:46:56.564Z,14.63
2023-06-19T05:49:42.418Z,14.70
2023-06-19T05:52:28.020Z,14.77
2023-06-19T05:55:13.672Z,14.83
2023-06-19T05:57:59.111Z,14.89
2023-06-19T06:00:44.442Z,14.96
2023-06-19T06:03:31.392Z,15.01
2023-06-19T06:06:16.922Z,15.06
2023-06-19T06:09:02.334Z,15.12
2023-06-19T06:11:48.210Z,15.16
2023-06-19T06:14:33.834Z,15.22
2023-06-19T06:17:19.246Z,15.27
2023-06-19T06:20:14.121Z,15.33
2023-06-19T06:22:59.674Z,15.37
2023-06-19T06:25:46.795Z,15.42
2023-06-19T06:28:32.885Z,15.48
2023-06-19T06:31:18.264Z,15.55
2023-06-19T06:34:03.588Z,15.62
2023-06-19T06:36:57.080Z,15.73
2023-06-19T06:39:51.047Z,15.88
2023-06-19T06:42:36.304Z,16.05
2023-06-19T06:45:21.868Z,16.10
2023-06-19T06:48:08.237Z,16.13
2023-06-19T06:51:00.197Z,16.12
2023-06-19T06:53:46.037Z,16.13
2023-06-19T06:56:31.536Z,16.18
2023-06-19T06:59:16.909Z,16.23
2023-06-19T07:02:02.390Z,16.28
2023-06-19T07:04:47.606Z,16.31
2023-06-19T07:07:33.018Z,16.40
2023-06-19T07:10:18.420Z,16.52
2023-06-19T07:13:03.676Z,16.66
2023-06-19T07:15:49.090Z,16.78
2023-06-19T07:18:36.352Z,16.92
2023-06-19T07:21:21.811Z,16.97
2023-06-19T07:24:07.639Z,16.99
2023-06-19T07:26:53.354Z,17.02
2023-06-19T07:29:38.712Z,17.03
2023-06-19T07:32:24.443Z,17.09
2023-06-19T07:35:10.304Z,17.10
2023-06-19T07:37:56.041Z,17.11
2023-06-19T07:40:41.735Z,17.02
2023-06-19T07:43:27.245Z,17.04
2023-06-19T07:46:12.745Z,17.05
2023-06-19T07:48:58.455Z,17.00
2023-06-19T07:51:43.925Z,17.01
2023-06-19T07:54:29.171Z,17.01
2023-06-19T07:57:14.624Z,17.05
2023-06-19T07:59:59.924Z,17.13
2023-06-19T08:02:45.412Z,17.24
2023-06-19T08:05:30.880Z,17.36
2023-06-19T08:08:16.088Z,17.49
2023-06-19T08:11:01.461Z,17.56
2023-06-19T08:13:46.914Z,17.55
2023-06-19T08:16:32.482Z,17.60
2023-06-19T08:19:18.265Z,17.62
2023-06-19T08:22:03.835Z,17.58
2023-06-19T08:24:49.665Z,17.59
2023-06-19T08:27:35.012Z,17.70
2023-06-19T08:30:20.495Z,17.83
2023-06-19T08:33:05.902Z,17.95
2023-06-19T08:35:51.201Z,18.07
2023-06-19T08:38:36.417Z,18.21
2023-06-19T08:41:21.888Z,18.27
2023-06-19T08:44:07.733Z,18.35
2023-06-19T08:46:53.730Z,18.46
2023-06-19T08:49:39.141Z,18.48
2023-06-19T08:52:24.885Z,18.48
2023-06-19T08:55:11.590Z,18.54
2023-06-19T08:57:57.218Z,18.46
2023-06-19T09:00:48.956Z,18.36
2023-06-19T09:03:34.833Z,18.43
2023-06-19T09:06:20.635Z,18.40
2023-06-19T09:09:12.070Z,18.43
2023-06-19T09:12:14.193Z,18.49
2023-06-19T09:15:01.590Z,18.54
2023-06-19T09:17:46.824Z,18.61
2023-06-19T09:20:45.601Z,18.63
2023-06-19T09:23:31.291Z,18.74
2023-06-19T09:26:21.467Z,18.82
2023-06-19T09:29:21.644Z,18.94
2023-06-19T09:32:18.320Z,19.00
2023-06-19T09:35:05.494Z,18.96
2023-06-19T09:37:53.077Z,18.83
2023-06-19T09:40:38.871Z,18.73
2023-06-19T09:43:27.081Z,18.69
2023-06-19T09:46:13.154Z,18.67
2023-06-19T09:49:02.686Z,18.64
2023-06-19T09:51:48.820Z,18.77
2023-06-19T09:54:35.097Z,18.96
2023-06-19T09:57:21.182Z,19.15
2023-06-19T10:00:23.574Z,19.51
2023-06-19T10:03:13.700Z,19.68
2023-06-19T10:06:01.229Z,19.74
2023-06-19T10:08:47.491Z,19.88
2023-06-19T10:11:49.229Z,20.05
2023-06-19T10:14:34.439Z,20.16
2023-06-19T10:17:20.111Z,20.26
2023-06-19T10:20:12.606Z,20.20
2023-06-19T10:23:06.530Z,20.37
2023-06-19T10:25:54.977Z,20.42
2023-06-19T10:28:41.153Z,20.51
2023-06-19T10:31:26.501Z,20.42
2023-06-19T10:34:13.149Z,20.33
2023-06-19T10:36:59.893Z,20.29
2023-06-19T10:39:45.846Z,20.41
2023-06-19T10:42:32.877Z,20.59
2023-06-19T10:45:18.224Z,20.67
2023-06-19T10:48:06.462Z,20.62
2023-06-19T10:50:52.588Z,20.48
2023-06-19T10:53:38.059Z,20.43
2023-06-19T10:56:24.667Z,20.31
2023-06-19T10:59:12.679Z,20.08
2023-06-19T11:01:58.649Z,19.93
2023-06-19T11:04:44.279Z,19.90
2023-06-19T11:07:29.706Z,20.06
2023-06-19T11:10:20.861Z,20.26
2023-06-19T11:13:06.522Z,20.44
2023-06-19T11:15:52.338Z,20.54
2023-06-19T11:18:37.903Z,20.61
2023-06-19T11:21:31.296Z,20.69
2023-06-19T11:24:17.509Z,20.67
2023-06-19T11:27:04.045Z,20.67
2023-06-19T11:29:49.319Z,20.86
2023-06-19T11:32:42.645Z,21.01
2023-06-19T11:35:37.827Z,21.30
2023-06-19T11:38:27.307Z,21.55
2023-06-19T11:41:13.381Z,21.76
2023-06-19T11:44:05.106Z,21.97
2023-06-19T11:46:50.645Z,22.23
2023-06-19T11:49:37.195Z,22.48
2023-06-19T11:52:22.542Z,22.87
2023-06-19T11:55:08.845Z,23.36
2023-06-19T11:57:54.544Z,23.83
2023-06-19T12:00:40.278Z,23.70
2023-06-19T12:03:25.721Z,23.33
2023-06-19T12:06:11.373Z,22.75
2023-06-19T12:08:56.876Z,22.38
2023-06-19T12:11:42.569Z,22.04
2023-06-19T12:14:28.379Z,21.94
2023-06-19T12:17:13.995Z,22.17
2023-06-19T12:20:00.361Z,22.86
2023-06-19T12:22:45.664Z,23.27
2023-06-19T12:25:31.028Z,23.48
2023-06-19T12:28:19.717Z,23.57
2023-06-19T12:31:05.470Z,23.89
2023-06-19T12:33:51.381Z,23.90
2023-06-19T12:36:37.020Z,23.87
2023-06-19T12:39:22.921Z,24.09
2023-06-19T12:42:09.091Z,24.38
2023-06-19T12:44:54.892Z,24.24
2023-06-19T12:47:40.353Z,24.00
2023-06-19T12:50:26.038Z,23.61
2023-06-19T12:53:12.760Z,23.23
2023-06-19T12:56:02.348Z,23.01
2023-06-19T12:58:49.447Z,22.79
2023-06-19T13:01:34.849Z,22.57
2023-06-19T13:04:20.109Z,22.50
2023-06-19T13:07:05.649Z,22.59
2023-06-19T13:09:50.992Z,22.61
2023-06-19T13:12:36.323Z,22.54
2023-06-19T13:15:21.600Z,22.44
2023-06-19T13:18:07.042Z,22.38
2023-06-19T13:20:52.938Z,22.46
2023-06-19T13:23:38.126Z,22.63
2023-06-19T13:26:23.476Z,22.77
2023-06-19T13:29:08.866Z,22.84
2023-06-19T13:31:54.441Z,22.76
2023-06-19T13:34:39.765Z,22.58
2023-06-19T13:37:25.199Z,22.43
2023-06-19T13:40:10.947Z,22.39
2023-06-19T13:42:56.577Z,22.42
2023-06-19T13:45:42.074Z,22.46
2023-06-19T13:48:28.879Z,22.51
2023-06-19T13:51:14.249Z,22.64
2023-06-19T13:54:00.040Z,22.66
2023-06-19T13:56:45.244Z,22.75
2023-06-19T13:59:30.710Z,22.82
2023-06-19T14:02:16.257Z,22.78
2023-06-19T14:05:01.552Z,22.81
2023-06-19T14:07:47.006Z,22.79
2023-06-19T14:10:32.290Z,22.71
2023-06-19T14:13:18.234Z,22.63
2023-06-19T14:16:04.065Z,22.58
2023-06-19T14:18:49.724Z,22.49
2023-06-19T14:21:35.044Z,22.39
2023-06-19T14:24:20.415Z,22.30
2023-06-19T14:27:06.675Z,22.32
2023-06-19T14:29:52.111Z,22.47
2023-06-19T14:32:38.189Z,22.67
2023-06-19T14:35:23.554Z,22.96
2023-06-19T14:38:09.027Z,23.34
2023-06-19T14:40:55.241Z,23.84
2023-06-19T14:43:40.884Z,24.12
2023-06-19T14:46:37.287Z,24.07
2023-06-19T14:49:24.044Z,23.79
2023-06-19T14:52:09.424Z,23.52
2023-06-19T14:54:57.674Z,23.15
2023-06-19T14:57:45.196Z,22.77
2023-06-19T15:00:30.669Z,22.58
2023-06-19T15:03:15.977Z,22.33
2023-06-19T15:06:01.936Z,22.10
2023-06-19T15:08:47.566Z,21.97
2023-06-19T15:11:33.788Z,22.02
2023-06-19T15:14:20.671Z,22.16
2023-06-19T15:17:06.715Z,22.43
2023-06-19T15:19:52.091Z,22.55
2023-06-19T15:22:40.533Z,22.76
2023-06-19T15:25:26.251Z,23.19
2023-06-19T15:28:13.060Z,23.80
2023-06-19T15:30:58.691Z,24.42
2023-06-19T15:33:44.565Z,24.76
2023-06-19T15:36:29.884Z,25.26
2023-06-19T15:39:15.366Z,25.63
2023-06-19T15:42:00.787Z,25.76
2023-06-19T15:44:46.053Z,25.91
2023-06-19T15:47:33.463Z,26.05
2023-06-19T15:50:18.918Z,26.24
2023-06-19T15:53:04.288Z,26.45
2023-06-19T15:55:49.917Z,26.57
2023-06-19T15:58:35.246Z,26.54
2023-06-19T16:01:20.800Z,26.31
2023-06-19T16:04:06.286Z,26.28
2023-06-19T16:06:52.384Z,26.17
2023-06-19T16:09:50.361Z,25.86
2023-06-19T16:12:40.288Z,25.63
2023-06-19T16:15:29.107Z,25.92
2023-06-19T16:18:14.826Z,26.51
2023-06-19T16:21:00.696Z,27.07
2023-06-19T16:23:46.310Z,27.10
2023-06-19T16:26:31.648Z,26.57
2023-06-19T16:29:17.057Z,25.93
2023-06-19T16:32:09.693Z,25.21
2023-06-19T16:34:57.701Z,24.70
2023-06-19T16:37:43.487Z,24.61
2023-06-19T16:40:28.818Z,24.94
2023-06-19T16:43:14.742Z,24.96
2023-06-19T16:46:00.009Z,24.65
2023-06-19T16:48:45.540Z,24.54
2023-06-19T16:51:31.561Z,24.90
2023-06-19T16:54:17.209Z,25.26
2023-06-19T16:57:02.883Z,25.19
2023-06-19T16:59:48.618Z,24.97
2023-06-19T17:02:34.515Z,24.88
2023-06-19T17:05:22.210Z,25.12
2023-06-19T17:08:07.784Z,25.41
2023-06-19T17:10:53.113Z,25.46
2023-06-19T17:13:38.477Z,25.08
2023-06-19T17:16:23.820Z,24.45
2023-06-19T17:19:09.364Z,23.76
2023-06-19T17:21:55.617Z,23.33
2023-06-19T17:24:41.403Z,22.93
2023-06-19T17:27:27.116Z,22.73
2023-06-19T17:30:13.411Z,22.54
2023-06-19T17:32:59.055Z,22.52
2023-06-19T17:35:44.690Z,22.61
2023-06-19T17:38:30.066Z,22.62
2023-06-19T17:41:15.437Z,22.81
2023-06-19T17:44:04.809Z,23.34
2023-06-19T17:46:50.263Z,23.74
2023-06-19T17:49:35.654Z,23.79
2023-06-19T17:52:21.037Z,23.65
2023-06-19T17:55:08.698Z,23.40
2023-06-19T17:57:54.197Z,23.42
2023-06-19T18:00:39.900Z,23.38
2023-06-19T18:03:25.807Z,23.07
2023-06-19T18:06:11.439Z,22.85
2023-06-19T18:08:56.762Z,22.64
2023-06-19T18:11:41.974Z,22.47
2023-06-19T18:14:28.375Z,22.46
2023-06-19T18:17:14.494Z,22.53
2023-06-19T18:20:00.137Z,22.61
2023-06-19T18:22:45.426Z,22.82
2023-06-19T18:25:30.680Z,23.03
2023-06-19T18:28:15.947Z,23.12
2023-06-19T18:31:01.309Z,23.06
2023-06-19T18:33:46.620Z,22.84
2023-06-19T18:36:32.051Z,22.69
2023-06-19T18:39:17.156Z,22.63
2023-06-19T18:42:03.456Z,22.51
2023-06-19T18:44:48.946Z,22.39
2023-06-19T18:47:34.389Z,22.29
2023-06-19T18:50:20.311Z,22.12
2023-06-19T18:53:05.691Z,21.95
2023-06-19T18:55:51.523Z,21.89
2023-06-19T18:58:37.316Z,21.73
2023-06-19T19:01:22.620Z,21.66
2023-06-19T19:04:08.091Z,21.58
2023-06-19T19:06:53.305Z,21.47
2023-06-19T19:09:38.689Z,21.41
2023-06-19T19:12:24.105Z,21.37
2023-06-19T19:15:09.796Z,21.25
2023-06-19T19:17:55.647Z,21.10
2023-06-19T19:20:41.457Z,21.04
2023-06-19T19:23:26.890Z,20.81
2023-06-19T19:26:12.298Z,20.56
2023-06-19T19:28:57.860Z,20.38
2023-06-19T19:31:43.280Z,20.19
2023-06-19T19:34:28.528Z,20.05
2023-06-19T19:37:13.986Z,19.98
2023-06-19T19:40:00.369Z,19.91
2023-06-19T19:42:45.641Z,19.77
2023-06-19T19:45:34.087Z,19.64
2023-06-19T19:48:19.488Z,19.56
2023-06-19T19:51:04.760Z,19.42
2023-06-19T19:53:50.436Z,19.33
2023-06-19T19:56:35.673Z,19.24
2023-06-19T19:59:21.147Z,19.13
2023-06-19T20:02:11.214Z,19.02
2023-06-19T20:04:56.705Z,18.95
2023-06-19T20:07:42.158Z,18.85
2023-06-19T20:10:27.865Z,18.74
2023-06-19T20:13:13.380Z,18.68
2023-06-19T20:15:58.654Z,18.58
2023-06-19T20:18:43.857Z,18.50
2023-06-19T20:21:31.926Z,18.37
2023-06-19T20:24:17.556Z,18.28
2023-06-19T20:27:03.715Z,18.18
2023-06-19T20:29:49.277Z,18.09
2023-06-19T20:32:34.600Z,18.01
2023-06-19T20:35:21.409Z,17.92
2023-06-19T20:38:07.139Z,17.81
2023-06-19T20:40:52.568Z,17.71
2023-06-19T20:43:38.032Z,17.65
2023-06-19T20:46:23.412Z,17.56
2023-06-19T20:49:08.879Z,17.48
2023-06-19T20:51:54.416Z,17.43
2023-06-19T20:54:40.572Z,17.37
2023-06-19T20:57:26.310Z,17.35
2023-06-19T21:00:12.299Z,17.29
2023-06-19T21:02:58.309Z,17.26
2023-06-19T21:05:43.929Z,17.20
2023-06-19T21:08:32.368Z,17.14
2023-06-19T21:11:17.748Z,17.06
2023-06-19T21:14:03.265Z,16.99
2023-06-19T21:16:48.785Z,16.93
2023-06-19T21:19:34.251Z,16.87
2023-06-19T21:22:19.648Z,16.78
2023-06-19T21:25:06.949Z,16.69
2023-06-19T21:27:52.409Z,16.63
2023-06-19T21:30:37.631Z,16.60
2023-06-19T21:33:25.032Z,16.59
2023-06-19T21:36:10.887Z,16.53
2023-06-19T21:38:56.580Z,16.43
2023-06-19T21:41:41.923Z,16.35
2023-06-19T21:44:27.291Z,16.23
2023-06-19T21:47:12.710Z,16.14
2023-06-19T21:49:58.142Z,16.05
2023-06-19T21:52:43.442Z,16.00
2023-06-19T21:55:29.069Z,15.96
2023-06-19T21:58:14.530Z,15.91
2023-06-19T22:00:59.835Z,15.90
2023-06-19T22:03:45.442Z,15.94
2023-06-19T22:06:31.148Z,15.95
2023-06-19T22:09:16.537Z,15.93
2023-06-19T22:12:02.214Z,15.86
2023-06-19T22:14:47.434Z,15.78
2023-06-19T22:17:33.016Z,15.78
2023-06-19T22:20:19.767Z,15.72
2023-06-19T22:23:05.666Z,15.69
2023-06-19T22:25:51.067Z,15.64
2023-06-19T22:28:36.478Z,15.65
2023-06-19T22:31:21.952Z,15.66
2023-06-19T22:34:07.340Z,15.67
2023-06-19T22:36:52.926Z,15.62
2023-06-19T22:39:38.375Z,15.56
2023-06-19T22:42:23.809Z,15.51
2023-06-19T22:45:10.800Z,15.44
2023-06-19T22:47:56.393Z,15.34
2023-06-19T22:50:41.731Z,15.25
2023-06-19T22:53:30.063Z,15.16
2023-06-19T22:56:15.620Z,15.02
2023-06-19T22:59:01.130Z,14.92
2023-06-19T23:01:46.602Z,14.83
2023-06-19T23:04:32.028Z,14.72
2023-06-19T23:07:17.400Z,14.67
2023-06-19T23:10:09.008Z,14.62
2023-06-19T23:12:54.742Z,14.57
2023-06-19T23:15:40.127Z,14.50
2023-06-19T23:18:25.479Z,14.43
2023-06-19T23:21:10.916Z,14.35
2023-06-19T23:23:56.221Z,14.30
2023-06-19T23:26:41.480Z,14.21
2023-06-19T23:29:26.891Z,14.09
2023-06-19T23:32:12.120Z,13.97
2023-06-19T23:34:59.135Z,13.85
2023-06-19T23:37:44.655Z,13.79
2023-06-19T23:40:29.962Z,13.73
2023-06-19T23:43:15.363Z,13.63
2023-06-19T23:46:00.615Z,13.53
2023-06-19T23:48:46.319Z,13.46
2023-06-19T23:51:31.916Z,13.37
2023-06-19T23:54:17.504Z,13.31
2023-06-19T23:57:03.990Z,13.32
2023-06-19T23:59:49.483Z,13.33
